Time;durP1;ratioP1;P1;durP2;ratioP2;P2;SDS_P1;SDS_P2;PMS_P1;PMS_P2;Temp;Humidity;BMP_temperature;BMP_pressure;BME280_temperature;BME280_humidity;BME280_pressure;Samples;Min_cycle;Max_cycle;Signal;HPM_P1;HPM_P2
2022/01/08 00:00:27;;;;;;;12.40;6.50;;;;;;;1.46;100.00;99565.47;5070944;28;20199;-63
2022/01/08 00:02:54;;;;;;;12.10;6.17;;;;;;;1.51;100.00;99568.72;5070472;28;20199;-57
2022/01/08 00:05:22;;;;;;;16.03;6.37;;;;;;;1.46;100.00;99560.44;5070067;28;20238;-57
2022/01/08 00:07:49;;;;;;;14.73;6.90;;;;;;;1.38;100.00;99557.28;5070386;28;20205;-57
2022/01/08 00:10:16;;;;;;;12.37;6.43;;;;;;;1.43;100.00;99555.50;5070619;28;20205;-57
2022/01/08 00:12:43;;;;;;;18.83;8.43;;;;;;;1.40;100.00;99560.63;5070241;28;20198;-66
2022/01/08 00:15:10;;;;;;;16.27;6.83;;;;;;;1.37;100.00;99545.59;5070217;28;20209;-66
2022/01/08 00:17:38;;;;;;;9.47;5.13;;;;;;;1.33;100.00;99554.88;5070383;28;20570;-58
2022/01/08 00:20:06;;;;;;;13.67;6.30;;;;;;;1.37;100.00;99548.09;5070470;28;20749;-57
2022/01/08 00:22:33;;;;;;;12.30;5.83;;;;;;;1.32;100.00;99557.47;5069979;28;20229;-57
2022/01/08 00:25:00;;;;;;;16.13;7.73;;;;;;;1.33;100.00;99554.06;5070172;28;20234;-57
2022/01/08 00:27:27;;;;;;;17.73;6.63;;;;;;;1.45;100.00;99548.69;5070161;28;20226;-58
2022/01/08 00:29:54;;;;;;;13.57;6.10;;;;;;;1.35;100.00;99542.28;5070110;28;20281;-57
2022/01/08 00:32:21;;;;;;;14.47;5.93;;;;;;;1.29;100.00;99542.44;5070230;28;20588;-60
2022/01/08 00:34:49;;;;;;;11.93;6.43;;;;;;;1.30;100.00;99547.41;5070272;28;20198;-61
2022/01/08 00:37:16;;;;;;;15.63;6.93;;;;;;;1.21;100.00;99541.81;5070185;28;20219;-65
2022/01/08 00:39:44;;;;;;;13.37;6.67;;;;;;;1.22;100.00;99541.78;5069981;28;20252;-57
2022/01/08 00:42:11;;;;;;;15.90;8.50;;;;;;;1.31;100.00;99546.56;5069846;28;20277;-66
2022/01/08 00:44:38;;;;;;;17.57;7.57;;;;;;;1.30;100.00;99544.06;5069880;28;20798;-67
2022/01/08 00:47:05;;;;;;;21.77;7.90;;;;;;;1.26;100.00;99542.53;5069863;28;20225;-58
2022/01/08 00:49:32;;;;;;;19.20;7.87;;;;;;;1.32;100.00;99547.38;5069980;28;20597;-66
2022/01/08 00:52:00;;;;;;;16.60;7.53;;;;;;;1.21;100.00;99540.13;5069854;28;20225;-66
2022/01/08 00:54:27;;;;;;;16.90;8.20;;;;;;;1.26;100.00;99537.50;5070063;28;20218;-58
2022/01/08 00:56:54;;;;;;;16.97;8.07;;;;;;;1.25;100.00;99545.88;5069895;28;20617;-57
2022/01/08 00:59:21;;;;;;;14.77;7.60;;;;;;;1.23;100.00;99542.59;5069866;28;20288;-57
2022/01/08 01:01:47;;;;;;;14.93;7.13;;;;;;;1.31;100.00;99548.28;5069681;28;20380;-66
2022/01/08 01:04:14;;;;;;;12.90;6.20;;;;;;;1.19;100.00;99541.84;5069621;28;20234;-57
2022/01/08 01:06:41;;;;;;;17.23;7.37;;;;;;;1.17;100.00;99536.03;5070022;28;20231;-65
2022/01/08 01:09:09;;;;;;;12.77;6.50;;;;;;;1.27;100.00;99531.56;5071351;28;20659;-65
2022/01/08 01:11:36;;;;;;;17.10;8.00;;;;;;;1.15;100.00;99525.16;5073102;28;20279;-57
2022/01/08 01:14:03;;;;;;;17.07;7.03;;;;;;;1.19;100.00;99520.88;5073057;28;20218;-64
2022/01/08 01:16:30;;;;;;;9.20;5.50;;;;;;;1.10;100.00;99522.75;5073202;28;20226;-66
2022/01/08 01:19:00;;;;;;;15.37;7.93;;;;;;;1.10;100.00;99512.69;5073247;28;20207;-65
2022/01/08 01:21:26;;;;;;;16.23;6.17;;;;;;;1.11;100.00;99521.91;5072994;28;20218;-66
2022/01/08 01:23:54;;;;;;;19.40;8.27;;;;;;;1.11;100.00;99509.31;5073413;28;20203;-58
2022/01/08 01:26:25;;;;;;;13.23;6.67;;;;;;;1.05;100.00;99508.66;5073047;28;20219;-65
2022/01/08 01:28:57;;;;;;;14.33;7.13;;;;;;;0.97;100.00;99508.88;5072946;28;20252;-57
2022/01/08 01:42:40;;;;;;;16.60;6.37;;;;;;;0.97;100.00;99476.13;5072741;28;20636;-65
2022/01/08 01:47:55;;;;;;;20.50;8.37;;;;;;;1.07;100.00;99464.94;5072802;28;20202;-63
2022/01/08 01:50:22;;;;;;;15.20;7.23;;;;;;;0.93;100.00;99458.63;5072834;28;20210;-66
2022/01/08 01:52:49;;;;;;;10.43;5.20;;;;;;;0.97;100.00;99461.03;5072492;28;20452;-65
2022/01/08 01:55:16;;;;;;;9.13;5.07;;;;;;;0.90;100.00;99452.81;5072383;28;20221;-65
2022/01/08 01:57:48;;;;;;;16.67;7.37;;;;;;;0.93;100.00;99449.38;5072396;28;20209;-65
2022/01/08 02:00:15;;;;;;;12.47;6.33;;;;;;;0.89;100.00;99442.78;5072862;28;20205;-65
2022/01/08 02:02:42;;;;;;;14.90;7.53;;;;;;;0.90;100.00;99447.78;5072417;28;20668;-65
2022/01/08 02:05:09;;;;;;;9.17;4.47;;;;;;;0.99;100.00;99444.19;5072283;28;20234;-58
2022/01/08 02:07:36;;;;;;;12.30;6.13;;;;;;;0.93;100.00;99446.03;5072013;28;20241;-66
2022/01/08 02:10:04;;;;;;;14.40;6.37;;;;;;;0.94;100.00;99446.00;5072625;28;20206;-65
2022/01/08 02:12:33;;;;;;;15.23;5.80;;;;;;;0.96;100.00;99439.25;5072453;28;20226;-59
2022/01/08 02:15:02;;;;;;;21.80;6.13;;;;;;;0.94;100.00;99435.94;5072528;28;20202;-66
2022/01/08 02:17:29;;;;;;;18.60;7.07;;;;;;;0.91;100.00;99436.03;5071987;28;20726;-66
2022/01/08 02:19:57;;;;;;;26.10;6.63;;;;;;;1.00;100.00;99435.78;5072437;28;20479;-57
2022/01/08 02:22:24;;;;;;;13.07;5.10;;;;;;;0.92;100.00;99435.16;5072027;28;20225;-65
2022/01/08 02:24:51;;;;;;;15.97;5.03;;;;;;;0.92;100.00;99439.38;5072084;28;20241;-57
2022/01/08 02:27:18;;;;;;;14.73;5.17;;;;;;;0.92;100.00;99437.66;5071811;28;20241;-57
2022/01/08 02:29:46;;;;;;;29.77;7.93;;;;;;;0.92;100.00;99442.69;5072097;28;20206;-65
2022/01/08 02:32:18;;;;;;;36.83;8.07;;;;;;;0.89;100.00;99437.75;5071591;28;20472;-66
2022/01/08 02:34:47;;;;;;;16.10;4.70;;;;;;;0.94;100.00;99435.94;5072019;28;20294;-57
2022/01/08 02:37:17;;;;;;;30.77;8.23;;;;;;;0.93;100.00;99434.28;5071527;28;20728;-57
2022/01/08 02:39:44;;;;;;;20.23;6.07;;;;;;;0.96;100.00;99433.38;5071988;28;20210;-58
2022/01/08 02:42:16;;;;;;;18.87;6.00;;;;;;;0.96;100.00;99436.72;5071424;28;20224;-64
2022/01/08 02:44:44;;;;;;;14.37;4.87;;;;;;;0.83;100.00;99432.88;5071412;28;20745;-65
2022/01/08 02:47:13;;;;;;;26.73;6.97;;;;;;;0.83;100.00;99435.41;5071273;28;20230;-58
2022/01/08 02:49:40;;;;;;;17.57;5.90;;;;;;;0.89;100.00;99435.22;5071685;28;20209;-66
2022/01/08 02:52:08;;;;;;;32.00;7.33;;;;;;;0.87;100.00;99439.47;5071594;28;20226;-58
2022/01/08 02:54:37;;;;;;;14.70;4.97;;;;;;;0.85;100.00;99438.72;5071444;28;20210;-66
2022/01/08 02:57:04;;;;;;;32.60;7.47;;;;;;;0.89;100.00;99433.53;5071123;28;20226;-66
2022/01/08 02:59:32;;;;;;;30.03;6.47;;;;;;;0.88;100.00;99436.13;5071255;28;20206;-57
2022/01/08 03:01:59;;;;;;;21.27;6.77;;;;;;;0.83;100.00;99432.88;5071241;28;20226;-57
2022/01/08 03:04:25;;;;;;;36.77;9.17;;;;;;;0.83;100.00;99432.88;5071241;28;20198;-57
2022/01/08 03:06:52;;;;;;;22.47;6.20;;;;;;;0.89;100.00;99428.50;5071058;28;20480;-57
2022/01/08 03:09:19;;;;;;;41.57;7.43;;;;;;;0.86;100.00;99422.72;5071063;28;20207;-57
2022/01/08 03:11:47;;;;;;;21.93;6.43;;;;;;;0.86;100.00;99416.00;5070963;28;20241;-57
2022/01/08 03:14:14;;;;;;;31.47;8.50;;;;;;;0.79;100.00;99421.25;5070804;28;20664;-66
2022/01/08 03:16:41;;;;;;;33.87;6.90;;;;;;;0.83;100.00;99422.81;5070878;28;20742;-65
2022/01/08 03:19:11;;;;;;;18.20;6.67;;;;;;;0.89;100.00;99422.66;5071032;28;20206;-57
2022/01/08 03:21:41;;;;;;;26.30;5.90;;;;;;;0.87;100.00;99427.75;5071300;28;20355;-57
2022/01/08 03:24:14;;;;;;;37.30;7.63;;;;;;;0.83;100.00;99423.63;5070855;28;20202;-57
2022/01/08 03:26:40;;;;;;;19.37;6.70;;;;;;;0.83;100.00;99417.78;5071138;28;20507;-62
2022/01/08 03:29:09;;;;;;;29.20;7.90;;;;;;;0.74;100.00;99423.88;5070799;28;20206;-62
2022/01/08 03:31:36;;;;;;;42.50;7.30;;;;;;;0.84;100.00;99426.97;5070257;28;20225;-65
2022/01/08 03:34:03;;;;;;;29.43;7.10;;;;;;;0.80;100.00;99427.94;5070787;28;20206;-66
2022/01/08 03:36:29;;;;;;;24.10;7.90;;;;;;;0.76;100.00;99418.84;5070464;28;20218;-66
2022/01/08 03:38:56;;;;;;;32.87;6.63;;;;;;;0.74;100.00;99418.03;5070520;28;20449;-57
2022/01/08 03:41:23;;;;;;;38.03;7.47;;;;;;;0.74;100.00;99402.94;5070606;28;20218;-66
2022/01/08 03:43:50;;;;;;;30.43;6.63;;;;;;;0.77;100.00;99397.81;5070601;28;20217;-65
2022/01/08 03:46:20;;;;;;;13.27;4.57;;;;;;;0.74;100.00;99402.94;5070449;28;20532;-57
2022/01/08 03:49:10;;;;;;;67.20;8.53;;;;;;;0.81;100.00;99394.34;5070507;28;20461;-57
2022/01/08 03:51:35;;;;;;;35.43;5.57;;;;;;;0.73;100.00;99403.78;5070213;28;20471;-66
2022/01/08 03:54:02;;;;;;;42.83;6.77;;;;;;;0.79;100.00;99411.19;5070656;28;20198;-57
2022/01/08 03:56:29;;;;;;;16.50;5.33;;;;;;;0.81;100.00;99415.28;5070385;28;20234;-65
2022/01/08 03:58:56;;;;;;;51.33;9.23;;;;;;;0.77;100.00;99415.44;5070593;28;20453;-66
2022/01/08 04:01:24;;;;;;;57.53;8.50;;;;;;;0.72;100.00;99412.22;5070410;28;20222;-65
2022/01/08 04:03:51;;;;;;;69.23;8.97;;;;;;;0.85;100.00;99411.03;5070331;28;20201;-57
2022/01/08 04:06:18;;;;;;;59.13;7.60;;;;;;;0.87;100.00;99400.06;5070441;28;20239;-66
2022/01/08 04:08:44;;;;;;;64.03;5.87;;;;;;;0.78;100.00;99389.41;5070417;28;20582;-66
2022/01/08 04:11:11;;;;;;;75.90;8.03;;;;;;;0.79;100.00;99391.06;5070195;28;20222;-65
2022/01/08 04:13:40;;;;;;;41.60;7.30;;;;;;;0.61;100.00;99395.72;5070334;28;20214;-65
2022/01/08 04:16:11;;;;;;;66.97;8.53;;;;;;;0.62;100.00;99399.88;5070202;28;20219;-67
2022/01/08 04:18:40;;;;;;;34.47;6.80;;;;;;;0.68;100.00;99403.94;5070437;28;20202;-57
2022/01/08 04:21:28;;;;;;;15.53;4.87;;;;;;;0.73;100.00;99403.78;5070330;28;20464;-66
2022/01/08 04:23:58;;;;;;;10.53;4.13;;;;;;;0.55;100.00;99402.59;5070237;28;20747;-66
2022/01/08 04:26:25;;;;;;;23.77;4.87;;;;;;;0.55;100.00;99403.41;5070079;28;20496;-57
2022/01/08 04:28:53;;;;;;;19.67;5.10;;;;;;;0.48;100.00;99406.97;5070408;28;20457;-65
2022/01/08 04:31:20;;;;;;;11.63;4.20;;;;;;;0.46;100.00;99393.59;5070069;28;20324;-65
2022/01/08 04:33:49;;;;;;;32.53;6.83;;;;;;;0.50;100.00;99385.13;5070214;28;20877;-65
2022/01/08 04:36:16;;;;;;;37.37;7.17;;;;;;;0.59;100.00;99384.88;5069866;28;20480;-64
2022/01/08 04:38:44;;;;;;;21.93;6.07;;;;;;;0.52;100.00;99382.53;5070112;28;20201;-57
2022/01/08 04:41:11;;;;;;;29.37;6.97;;;;;;;0.48;100.00;99391.06;5070151;28;20233;-57
2022/01/08 04:43:38;;;;;;;45.33;6.63;;;;;;;0.52;100.00;99383.38;5070878;28;20472;-66
2022/01/08 04:46:05;;;;;;;73.90;7.77;;;;;;;0.47;100.00;99381.84;5073955;28;20492;-65
2022/01/08 04:48:32;;;;;;;38.70;6.97;;;;;;;0.54;100.00;99386.69;5073983;28;20201;-65
2022/01/08 04:51:00;;;;;;;33.73;5.93;;;;;;;0.49;100.00;99391.00;5073602;28;21019;-66
2022/01/08 04:53:27;;;;;;;36.53;6.87;;;;;;;0.48;100.00;99391.88;5073851;28;20210;-66
2022/01/08 04:55:54;;;;;;;55.93;7.57;;;;;;;0.47;100.00;99385.19;5073547;28;20465;-57
2022/01/08 04:58:21;;;;;;;65.83;8.57;;;;;;;0.52;100.00;99383.38;5073451;28;20198;-57
2022/01/08 05:00:48;;;;;;;28.23;5.07;;;;;;;0.46;100.00;99388.56;5073429;28;20460;-57
2022/01/08 05:03:14;;;;;;;53.73;8.23;;;;;;;0.54;100.00;99380.81;5073590;28;20199;-66
2022/01/08 05:05:41;;;;;;;34.07;5.07;;;;;;;0.51;100.00;99380.91;5073316;28;21013;-66
2022/01/08 05:08:10;;;;;;;55.40;7.60;;;;;;;0.55;100.00;99383.28;5073045;28;20209;-65
2022/01/08 05:10:36;;;;;;;60.80;7.67;;;;;;;0.54;100.00;99386.69;5073284;28;20226;-57
2022/01/08 05:13:05;;;;;;;50.73;6.93;;;;;;;0.55;100.00;99377.44;5073305;28;20225;-57
2022/01/08 05:15:32;;;;;;;69.00;7.67;;;;;;;0.52;100.00;99382.53;5073446;28;20441;-65
2022/01/08 05:17:59;;;;;;;76.03;7.77;;;;;;;0.56;100.00;99382.44;5073215;28;20957;-57
2022/01/08 05:20:31;;;;;;;92.80;10.53;;;;;;;0.53;100.00;99382.53;5073553;28;20456;-66
2022/01/08 05:23:00;;;;;;;95.17;10.40;;;;;;;0.56;100.00;99376.59;5073048;28;20899;-57
2022/01/08 05:25:30;;;;;;;77.67;8.20;;;;;;;0.59;100.00;99374.81;5073034;28;20231;-66
2022/01/08 05:27:58;;;;;;;97.50;10.73;;;;;;;0.57;100.00;99379.03;5073067;28;20645;-65
2022/01/08 05:30:26;;;;;;;51.17;8.37;;;;;;;0.64;100.00;99373.00;5073408;28;20198;-66
2022/01/08 05:32:54;;;;;;;37.80;8.13;;;;;;;0.56;100.00;99356.47;5072915;28;20680;-65
2022/01/08 05:35:22;;;;;;;86.60;11.07;;;;;;;0.63;100.00;99357.94;5072840;28;20567;-66
2022/01/08 05:37:49;;;;;;;91.07;8.77;;;;;;;0.54;100.00;99359.00;5072721;28;20199;-65
2022/01/08 05:40:16;;;;;;;71.37;8.27;;;;;;;0.60;100.00;99356.31;5073286;28;20214;-66
2022/01/08 05:42:44;;;;;;;99.17;9.20;;;;;;;0.50;100.00;99356.63;5072712;28;20202;-65
2022/01/08 05:45:11;;;;;;;120.57;11.80;;;;;;;0.53;100.00;99359.88;5072744;28;20706;-66
2022/01/08 05:47:38;;;;;;;151.23;14.83;;;;;;;0.59;100.00;99354.69;5072479;28;20269;-65
2022/01/08 05:50:06;;;;;;;90.30;9.70;;;;;;;0.56;100.00;99359.78;5073039;28;20207;-57
2022/01/08 05:52:33;;;;;;;69.60;8.97;;;;;;;0.48;100.00;99359.16;5072702;28;20225;-65
2022/01/08 05:55:00;;;;;;;77.03;8.10;;;;;;;0.53;100.00;99356.53;5072515;28;20461;-57
2022/01/08 05:57:27;;;;;;;84.27;8.30;;;;;;;0.56;100.00;99354.75;5072355;28;20226;-66
2022/01/08 05:59:58;;;;;;;90.87;10.37;;;;;;;0.50;100.00;99354.94;5072573;28;20202;-65
2022/01/08 06:02:24;;;;;;;125.00;10.20;;;;;;;0.53;100.00;99357.38;5072328;28;20738;-57
2022/01/08 06:04:51;;;;;;;80.90;9.13;;;;;;;0.57;100.00;99351.38;5072441;28;20202;-57
2022/01/08 06:07:18;;;;;;;25.37;3.97;;;;;;;0.58;100.00;99357.22;5071997;28;20234;-66
2022/01/08 06:09:45;;;;;;;106.27;10.40;;;;;;;0.61;100.00;99352.94;5072577;28;20548;-57
2022/01/08 06:12:12;;;;;;;104.20;11.57;;;;;;;0.65;100.00;99349.47;5072298;28;20226;-65
2022/01/08 06:14:41;;;;;;;169.77;14.20;;;;;;;0.67;100.00;99357.81;5072263;28;20206;-59
2022/01/08 06:17:10;;;;;;;162.60;14.47;;;;;;;0.68;100.00;99353.59;5072123;28;20253;-57
2022/01/08 06:19:36;;;;;;;55.03;9.10;;;;;;;0.66;100.00;99356.16;5071946;28;20551;-57
2022/01/08 06:22:04;;;;;;;15.57;3.17;;;;;;;0.66;100.00;99356.16;5071819;28;20491;-65
2022/01/08 06:24:30;;;;;;;107.57;10.07;;;;;;;0.67;100.00;99355.31;5072336;28;20285;-65
2022/01/08 06:26:58;;;;;;;144.30;13.40;;;;;;;0.75;100.00;99349.22;5071664;28;20495;-66
2022/01/08 06:29:25;;;;;;;170.73;13.37;;;;;;;0.72;100.00;99355.16;5072038;28;20202;-65
2022/01/08 06:31:53;;;;;;;77.80;10.37;;;;;;;0.73;100.00;99356.81;5071405;28;20226;-58
2022/01/08 06:34:21;;;;;;;69.27;9.77;;;;;;;0.74;100.00;99355.13;5071944;28;20202;-65
2022/01/08 06:36:48;;;;;;;102.03;10.17;;;;;;;0.78;100.00;99354.16;5071953;28;20222;-66
2022/01/08 06:39:16;;;;;;;64.33;8.30;;;;;;;0.69;100.00;99355.25;5071710;28;20203;-66
2022/01/08 06:41:43;;;;;;;64.27;7.13;;;;;;;0.74;100.00;99350.91;5071444;28;20223;-57
2022/01/08 06:44:10;;;;;;;110.67;11.70;;;;;;;0.72;100.00;99355.16;5071532;28;20213;-66
2022/01/08 06:46:37;;;;;;;56.97;9.93;;;;;;;0.77;100.00;99348.31;5071335;28;20239;-66
2022/01/08 06:49:04;;;;;;;76.07;10.27;;;;;;;0.81;100.00;99349.03;5071439;28;20448;-65
2022/01/08 06:51:32;;;;;;;91.40;9.37;;;;;;;0.80;100.00;99342.38;5071499;28;20222;-65
2022/01/08 06:53:59;;;;;;;31.67;5.10;;;;;;;0.79;100.00;99336.50;5071433;28;20218;-58
2022/01/08 06:56:25;;;;;;;49.80;7.63;;;;;;;0.87;100.00;99338.78;5071378;28;20238;-66
2022/01/08 06:58:52;;;;;;;29.03;4.63;;;;;;;0.78;100.00;99344.09;5071449;28;20198;-57
2022/01/08 07:01:21;;;;;;;96.07;10.63;;;;;;;0.83;100.00;99347.31;5071066;28;21035;-66
2022/01/08 07:03:48;;;;;;;89.33;9.47;;;;;;;0.93;100.00;99351.19;5071014;28;20207;-65
2022/01/08 07:06:15;;;;;;;105.30;11.97;;;;;;;0.85;100.00;99350.63;5070206;28;20258;-57
2022/01/08 07:08:43;;;;;;;130.13;11.23;;;;;;;0.84;100.00;99353.97;5070828;28;20195;-66
2022/01/08 07:11:11;;;;;;;131.83;10.27;;;;;;;0.83;100.00;99349.81;5071071;28;20225;-57
2022/01/08 07:13:38;;;;;;;168.50;13.43;;;;;;;0.94;100.00;99339.47;5071035;28;20221;-64
2022/01/08 07:16:06;;;;;;;88.13;9.00;;;;;;;0.92;100.00;99336.16;5070781;28;20699;-66
2022/01/08 07:18:33;;;;;;;143.87;12.63;;;;;;;0.90;100.00;99343.75;5070837;28;20672;-66
2022/01/08 07:21:00;;;;;;;110.67;9.67;;;;;;;0.93;100.00;99335.28;5070947;28;20221;-66
2022/01/08 07:23:27;;;;;;;139.97;13.23;;;;;;;0.94;100.00;99340.28;5071102;28;20206;-66
2022/01/08 07:25:55;;;;;;;94.60;9.73;;;;;;;0.99;100.00;99328.41;5070705;28;20897;-57
2022/01/08 07:28:22;;;;;;;99.00;11.27;;;;;;;1.00;100.00;99324.19;5070702;28;20676;-57
2022/01/08 07:30:49;;;;;;;50.73;7.10;;;;;;;0.93;100.00;99322.69;5070722;28;20730;-57
2022/01/08 07:33:15;;;;;;;143.73;13.27;;;;;;;1.01;100.00;99320.78;5070725;28;20203;-65
2022/01/08 07:35:42;;;;;;;96.17;10.67;;;;;;;0.96;100.00;99317.56;5070663;28;20222;-57
2022/01/08 07:38:09;;;;;;;61.40;7.93;;;;;;;1.03;100.00;99319.88;5070665;28;20198;-57
2022/01/08 07:40:36;;;;;;;99.47;11.73;;;;;;;1.06;100.00;99312.22;5070706;28;20214;-66
2022/01/08 07:43:04;;;;;;;90.30;9.93;;;;;;;1.19;100.00;99311.84;5070470;28;20633;-57
2022/01/08 07:45:32;;;;;;;81.27;10.30;;;;;;;1.20;100.00;99321.06;5070868;28;20210;-58
2022/01/08 07:47:59;;;;;;;74.43;8.17;;;;;;;1.15;100.00;99318.69;5070562;28;20234;-65
2022/01/08 07:50:26;;;;;;;67.10;8.03;;;;;;;1.11;100.00;99315.44;5070629;28;20207;-66
2022/01/08 07:52:52;;;;;;;61.97;8.63;;;;;;;1.21;100.00;99321.00;5070657;28;20203;-65
2022/01/08 07:55:19;;;;;;;117.90;13.00;;;;;;;1.20;100.00;99326.09;5070334;28;20221;-65
2022/01/08 07:57:47;;;;;;;124.93;12.97;;;;;;;1.22;100.00;99321.81;5070455;28;20243;-57
2022/01/08 08:00:17;;;;;;;61.63;9.67;;;;;;;1.31;100.00;99329.13;5070571;28;20205;-56
2022/01/08 08:02:43;;;;;;;86.00;8.03;;;;;;;1.35;100.00;99320.59;5070346;28;20205;-56
2022/01/08 08:05:10;;;;;;;78.73;8.53;;;;;;;1.25;100.00;99329.28;5070670;28;20202;-65
2022/01/08 08:07:37;;;;;;;62.40;8.53;;;;;;;1.21;100.00;99328.56;5070146;28;20706;-57
2022/01/08 08:10:07;;;;;;;76.33;9.23;;;;;;;1.21;100.00;99320.19;5070357;28;20199;-56
2022/01/08 08:12:34;;;;;;;60.23;8.53;;;;;;;1.23;100.00;99316.75;5070374;28;20588;-66
2022/01/08 08:15:01;;;;;;;26.20;5.30;;;;;;;1.19;100.00;99315.19;5070459;28;20593;-66
2022/01/08 08:17:29;;;;;;;68.50;10.03;;;;;;;1.24;100.00;99320.09;5070741;28;20715;-65
2022/01/08 08:19:56;;;;;;;89.73;9.83;;;;;;;1.28;100.00;99314.09;5074522;28;20453;-57
2022/01/08 08:22:23;;;;;;;59.67;9.60;;;;;;;1.29;100.00;99318.28;5074170;28;20747;-67
2022/01/08 08:24:50;;;;;;;21.50;5.63;;;;;;;1.31;100.00;99324.09;5074364;28;20217;-57
2022/01/08 08:27:17;;;;;;;96.57;9.73;;;;;;;1.30;100.00;99317.38;5073856;28;20724;-57
2022/01/08 08:29:44;;;;;;;26.97;8.20;;;;;;;1.44;100.00;99325.34;5074417;28;20624;-66
2022/01/08 08:32:11;;;;;;;54.40;9.47;;;;;;;1.48;100.00;99326.06;5073892;28;20724;-66
2022/01/08 08:34:39;;;;;;;84.40;11.57;;;;;;;1.55;100.00;99323.31;5074366;28;20203;-66
2022/01/08 08:37:06;;;;;;;101.20;10.93;;;;;;;1.54;100.00;99326.72;5073843;28;20221;-66
2022/01/08 08:39:33;;;;;;;98.03;12.30;;;;;;;1.58;100.00;99315.66;5074021;28;20672;-65
2022/01/08 08:42:00;;;;;;;45.30;8.30;;;;;;;1.72;100.00;99314.41;5073910;28;20219;-57
2022/01/08 08:44:27;;;;;;;55.63;9.13;;;;;;;1.61;100.00;99316.44;5073880;28;20218;-66
2022/01/08 08:46:54;;;;;;;59.03;9.70;;;;;;;1.66;100.00;99317.09;5073895;28;20238;-65
2022/01/08 08:49:20;;;;;;;67.27;9.93;;;;;;;1.67;100.00;99308.69;5073432;28;20664;-66
2022/01/08 08:51:49;;;;;;;33.30;6.30;;;;;;;1.66;100.00;99309.53;5073546;28;20242;-57
2022/01/08 08:54:16;;;;;;;53.30;9.17;;;;;;;1.74;100.00;99302.56;5073634;28;20230;-66
2022/01/08 08:56:43;;;;;;;91.27;10.70;;;;;;;1.78;100.00;99299.06;5073478;28;20758;-66
2022/01/08 08:59:10;;;;;;;50.50;7.37;;;;;;;1.75;100.00;99289.09;5073676;28;20241;-66
2022/01/08 09:01:38;;;;;;;54.37;8.73;;;;;;;1.74;100.00;99292.47;5073298;28;20229;-57
2022/01/08 09:04:05;;;;;;;44.33;6.47;;;;;;;1.78;100.00;99294.03;5073374;28;20202;-57
2022/01/08 09:06:32;;;;;;;153.53;13.73;;;;;;;1.84;100.00;99288.78;5073264;28;20241;-65
2022/01/08 09:09:01;;;;;;;67.30;9.47;;;;;;;1.76;100.00;99286.50;5073132;28;20273;-66
2022/01/08 09:11:28;;;;;;;115.77;12.97;;;;;;;1.91;100.00;99284.34;5073684;28;20218;-57
2022/01/08 09:13:55;;;;;;;108.93;12.53;;;;;;;1.90;100.00;99272.63;5073745;28;20206;-58
2022/01/08 09:16:22;;;;;;;62.47;11.63;;;;;;;1.99;100.00;99268.09;5073045;28;20219;-57
2022/01/08 09:18:49;;;;;;;58.97;10.63;;;;;;;2.12;100.00;99272.72;5073276;28;20199;-56
2022/01/08 09:21:16;;;;;;;78.63;11.63;;;;;;;2.08;100.00;99276.22;5073218;28;20218;-63
2022/01/08 09:23:43;;;;;;;202.90;17.57;;;;;;;2.06;100.00;99277.97;5073108;28;20203;-65
2022/01/08 09:26:11;;;;;;;113.83;12.43;;;;;;;2.10;100.00;99274.47;5072970;28;20221;-65
2022/01/08 09:28:38;;;;;;;193.63;16.47;;;;;;;2.17;100.00;99271.66;5072850;28;20230;-64
2022/01/08 09:31:05;;;;;;;165.60;13.47;;;;;;;2.21;100.00;99260.63;5072311;28;20225;-65
2022/01/08 09:33:33;;;;;;;57.97;14.80;;;;;;;2.29;100.00;99256.97;5072946;28;20233;-65
2022/01/08 09:36:00;;;;;;;115.07;22.57;;;;;;;2.35;100.00;99259.28;5072885;28;20248;-57
2022/01/08 09:38:27;;;;;;;80.57;9.43;;;;;;;2.23;100.00;99250.44;5072907;28;20245;-66
2022/01/08 09:40:54;;;;;;;113.30;13.23;;;;;;;2.25;100.00;99238.63;5073065;28;20251;-65
2022/01/08 09:43:23;;;;;;;122.63;12.40;;;;;;;2.28;100.00;99243.56;5072441;28;20206;-65
2022/01/08 09:45:50;;;;;;;104.90;10.93;;;;;;;2.33;100.00;99226.56;5072970;28;20238;-66
2022/01/08 09:48:17;;;;;;;74.03;10.27;;;;;;;2.37;100.00;99233.13;5072549;28;20242;-57
2022/01/08 09:50:44;;;;;;;61.83;9.07;;;;;;;2.32;100.00;99229.94;5072680;28;20613;-67
2022/01/08 09:53:11;;;;;;;33.87;9.03;;;;;;;2.28;100.00;99225.91;5072482;28;20203;-65
2022/01/08 09:55:39;;;;;;;80.57;10.40;;;;;;;2.42;100.00;99226.22;5072451;28;20226;-57
2022/01/08 09:58:06;;;;;;;61.50;8.13;;;;;;;2.43;100.00;99222.81;5072357;28;20210;-66
2022/01/08 10:00:36;;;;;;;49.47;8.53;;;;;;;2.38;100.00;99213.75;5072401;28;20212;-57
2022/01/08 10:03:26;;;;;;;24.50;7.10;;;;;;;2.43;100.00;99217.75;5072498;28;20214;-57
2022/01/08 10:05:55;;;;;;;25.50;6.33;;;;;;;2.45;100.00;99216.00;5068310;28;20257;-66
2022/01/08 10:08:25;;;;;;;66.47;7.63;;;;;;;2.41;100.00;99219.50;5072569;28;20241;-65
2022/01/08 10:10:56;;;;;;;70.57;8.73;;;;;;;2.44;100.00;99221.94;5072239;28;20226;-57
2022/01/08 10:13:24;;;;;;;16.47;7.40;;;;;;;2.35;100.00;99209.63;5072175;28;20276;-59
2022/01/08 10:18:40;;;;;;;19.47;6.57;;;;;;;2.51;100.00;99214.16;5072083;28;20202;-66
2022/01/08 10:21:19;;;;;;;54.23;7.67;;;;;;;2.43;100.00;99207.66;5071908;28;20726;-58
2022/01/08 10:23:48;;;;;;;48.23;8.63;;;;;;;2.47;100.00;99204.16;5072434;28;20199;-58
2022/01/08 10:26:17;;;;;;;69.50;10.83;;;;;;;2.55;100.00;99206.38;5072046;28;20214;-57
2022/01/08 10:28:47;;;;;;;54.10;9.17;;;;;;;2.49;100.00;99209.97;5071991;28;20669;-66
2022/01/08 10:31:19;;;;;;;60.17;10.23;;;;;;;2.51;100.00;99209.09;5072047;28;20215;-57
2022/01/08 10:33:49;;;;;;;46.03;8.40;;;;;;;2.45;100.00;99200.88;5071948;28;20206;-67
2022/01/08 10:36:21;;;;;;;39.13;8.50;;;;;;;2.51;100.00;99194.78;5071691;28;20214;-58
2022/01/08 10:38:51;;;;;;;53.03;9.07;;;;;;;2.45;100.00;99198.34;5071529;28;20210;-57
2022/01/08 10:41:19;;;;;;;35.83;8.33;;;;;;;2.51;100.00;99193.97;5071621;28;20226;-65
2022/01/08 10:43:46;;;;;;;44.23;8.43;;;;;;;2.53;100.00;99187.97;5071618;28;20215;-66
2022/01/08 10:46:17;;;;;;;44.03;8.40;;;;;;;2.51;100.00;99191.44;5071396;28;20226;-65
2022/01/08 10:48:47;;;;;;;69.37;9.77;;;;;;;2.59;100.00;99186.88;5071416;28;20234;-56
2022/01/08 10:51:20;;;;;;;48.37;9.67;;;;;;;2.55;100.00;99177.81;5071578;28;20604;-57
2022/01/08 10:53:53;;;;;;;33.53;6.20;;;;;;;2.65;100.00;99176.59;5071231;28;20207;-66
2022/01/08 10:56:24;;;;;;;39.50;8.27;;;;;;;2.49;100.00;99172.09;5071272;28;20229;-57
2022/01/08 10:58:53;;;;;;;31.77;7.73;;;;;;;2.56;100.00;99169.34;5071173;28;20213;-67
2022/01/08 11:01:50;;;;;;;42.90;9.10;;;;;;;2.60;100.00;99163.31;5071288;28;20265;-67
2022/01/08 11:04:19;;;;;;;38.67;8.83;;;;;;;2.67;100.00;99159.66;5071074;28;20618;-57
2022/01/08 11:06:56;;;;;;;35.63;8.10;;;;;;;2.68;100.00;99156.28;5071038;28;20225;-66
2022/01/08 11:09:24;;;;;;;24.30;6.30;;;;;;;2.59;100.00;99161.66;5071326;28;20190;-66
2022/01/08 11:11:51;;;;;;;31.23;7.67;;;;;;;2.62;100.00;99154.00;5070887;28;20218;-57
2022/01/08 11:14:45;;;;;;;27.27;7.20;;;;;;;2.70;100.00;99149.44;5071145;28;20202;-58
2022/01/08 11:17:20;;;;;;;31.23;7.83;;;;;;;2.67;100.00;99142.00;5070740;28;20310;-57
2022/01/08 11:19:49;;;;;;;33.20;9.47;;;;;;;2.65;100.00;99148.81;5071407;28;20213;-57
2022/01/08 11:22:17;;;;;;;54.37;7.93;;;;;;;2.65;100.00;99143.78;5070626;28;20238;-59
2022/01/08 11:24:52;;;;;;;57.40;8.90;;;;;;;2.65;100.00;99138.72;5070977;28;20195;-58
2022/01/08 11:27:23;;;;;;;33.83;6.37;;;;;;;2.62;100.00;99136.31;5070793;28;20242;-57
2022/01/08 11:29:58;;;;;;;36.60;8.33;;;;;;;2.58;100.00;99135.59;5070706;28;20210;-57
2022/01/08 11:32:28;;;;;;;28.77;6.90;;;;;;;2.52;100.00;99129.97;5071026;28;20222;-66
2022/01/08 11:34:56;;;;;;;46.67;8.23;;;;;;;2.64;100.00;99124.44;5070902;28;20214;-66
2022/01/08 11:37:25;;;;;;;32.53;7.10;;;;;;;2.58;100.00;99114.59;5070694;28;20226;-57
2022/01/08 11:39:53;;;;;;;22.23;6.53;;;;;;;2.63;100.00;99113.53;5070637;28;20688;-66
2022/01/08 11:42:21;;;;;;;17.20;6.87;;;;;;;2.67;100.00;99109.19;5070627;28;20226;-57